sensor_id;sensor_type;location;lat;lon;timestamp;pressure;altitude;pressure_sealevel;temperature;humidity
14966;BME280;7577;45.226;5.798;2022-11-20T00:00:28;97764.09;;;7.27;100.00
14966;BME280;7577;45.226;5.798;2022-11-20T00:02:59;97761.64;;;7.25;100.00
14966;BME280;7577;45.226;5.798;2022-11-20T00:05:31;97755.69;;;7.08;100.00
14966;BME280;7577;45.226;5.798;2022-11-20T00:10:41;97767.88;;;6.98;100.00
14966;BME280;7577;45.226;5.798;2022-11-20T00:13:12;97769.77;;;6.83;100.00
14966;BME280;7577;45.226;5.798;2022-11-20T00:15:42;97767.06;;;6.78;100.00
14966;BME280;7577;45.226;5.798;2022-11-20T00:18:12;97775.17;;;6.98;100.00
14966;BME280;7577;45.226;5.798;2022-11-20T00:20:42;97767.35;;;7.01;100.00
14966;BME280;7577;45.226;5.798;2022-11-20T00:23:12;97774.38;;;7.02;100.00
14966;BME280;7577;45.226;5.798;2022-11-20T00:25:42;97772.73;;;6.89;100.00
14966;BME280;7577;45.226;5.798;2022-11-20T00:28:12;97779.80;;;6.95;100.00
14966;BME280;7577;45.226;5.798;2022-11-20T00:33:23;97778.17;;;7.09;100.00
14966;BME280;7577;45.226;5.798;2022-11-20T00:35:53;97782.77;;;7.03;100.00
14966;BME280;7577;45.226;5.798;2022-11-20T00:38:23;97784.13;;;7.01;100.00
14966;BME280;7577;45.226;5.798;2022-11-20T00:40:56;97783.30;;;7.00;100.00
14966;BME280;7577;45.226;5.798;2022-11-20T00:43:27;97784.66;;;6.93;100.00
14966;BME280;7577;45.226;5.798;2022-11-20T00:45:59;97790.06;;;6.98;100.00
14966;BME280;7577;45.226;5.798;2022-11-20T00:48:29;97785.73;;;6.97;100.00
14966;BME280;7577;45.226;5.798;2022-11-20T00:50:59;97786.56;;;6.95;100.00
14966;BME280;7577;45.226;5.798;2022-11-20T00:53:30;97786.27;;;6.91;100.00
14966;BME280;7577;45.226;5.798;2022-11-20T00:58:44;97797.36;;;6.82;100.00
14966;BME280;7577;45.226;5.798;2022-11-20T01:01:15;97800.89;;;6.85;100.00
14966;BME280;7577;45.226;5.798;2022-11-20T01:06:36;97802.50;;;6.76;100.00
14966;BME280;7577;45.226;5.798;2022-11-20T01:09:09;97811.40;;;6.67;100.00
14966;BME280;7577;45.226;5.798;2022-11-20T01:11:42;97810.87;;;6.65;100.00
14966;BME280;7577;45.226;5.798;2022-11-20T01:14:14;97814.36;;;6.65;100.00
14966;BME280;7577;45.226;5.798;2022-11-20T01:16:47;97813.32;;;6.76;100.00
14966;BME280;7577;45.226;5.798;2022-11-20T01:19:20;97821.70;;;6.72;100.00
14966;BME280;7577;45.226;5.798;2022-11-20T01:21:52;97821.42;;;6.64;100.00
14966;BME280;7577;45.226;5.798;2022-11-20T01:24:23;97830.34;;;6.72;100.00
14966;BME280;7577;45.226;5.798;2022-11-20T01:26:53;97829.23;;;6.58;100.00
14966;BME280;7577;45.226;5.798;2022-11-20T01:29:24;97835.48;;;6.66;100.00
14966;BME280;7577;45.226;5.798;2022-11-20T01:31:54;97833.03;;;6.64;100.00
14966;BME280;7577;45.226;5.798;2022-11-20T01:34:25;97833.84;;;6.55;100.00
14966;BME280;7577;45.226;5.798;2022-11-20T01:36:56;97834.34;;;6.47;100.00
14966;BME280;7577;45.226;5.798;2022-11-20T01:39:28;97840.00;;;6.40;100.00
14966;BME280;7577;45.226;5.798;2022-11-20T01:41:58;97839.51;;;6.53;100.00
14966;BME280;7577;45.226;5.798;2022-11-20T01:44:54;97833.86;;;6.65;100.00
14966;BME280;7577;45.226;5.798;2022-11-20T01:50:13;97828.10;;;6.41;100.00
14966;BME280;7577;45.226;5.798;2022-11-20T01:52:46;97835.36;;;6.31;100.00
14966;BME280;7577;45.226;5.798;2022-11-20T01:55:21;97835.94;;;6.35;100.00
14966;BME280;7577;45.226;5.798;2022-11-20T02:00:31;97826.38;;;6.18;100.00
14966;BME280;7577;45.226;5.798;2022-11-20T02:03:04;97834.98;;;6.07;100.00
14966;BME280;7577;45.226;5.798;2022-11-20T02:05:37;97833.31;;;5.96;100.00
14966;BME280;7577;45.226;5.798;2022-11-20T02:10:55;97836.32;;;6.05;100.00
14966;BME280;7577;45.226;5.798;2022-11-20T02:13:25;97841.99;;;6.06;100.00
14966;BME280;7577;45.226;5.798;2022-11-20T02:16:21;97837.66;;;6.02;100.00
14966;BME280;7577;45.226;5.798;2022-11-20T02:18:53;97839.84;;;6.03;100.00
14966;BME280;7577;45.226;5.798;2022-11-20T02:21:33;97839.62;;;5.73;100.00
14966;BME280;7577;45.226;5.798;2022-11-20T02:24:05;97843.09;;;5.68;100.00
14966;BME280;7577;45.226;5.798;2022-11-20T02:26:39;97841.73;;;5.66;100.00
14966;BME280;7577;45.226;5.798;2022-11-20T02:29:10;97841.73;;;5.66;100.00
14966;BME280;7577;45.226;5.798;2022-11-20T02:31:42;97844.66;;;5.59;100.00
14966;BME280;7577;45.226;5.798;2022-11-20T02:34:13;97842.66;;;5.45;100.00
14966;BME280;7577;45.226;5.798;2022-11-20T02:36:43;97842.66;;;5.45;100.00
14966;BME280;7577;45.226;5.798;2022-11-20T02:39:16;97841.30;;;5.45;100.00
14966;BME280;7577;45.226;5.798;2022-11-20T02:41:46;97843.27;;;5.54;100.00
14966;BME280;7577;45.226;5.798;2022-11-20T02:44:16;97839.43;;;5.45;100.00
14966;BME280;7577;45.226;5.798;2022-11-20T02:49:27;97836.48;;;5.47;100.00
14966;BME280;7577;45.226;5.798;2022-11-20T02:51:57;97837.00;;;5.46;100.00
14966;BME280;7577;45.226;5.798;2022-11-20T02:54:28;97838.16;;;5.58;100.00
14966;BME280;7577;45.226;5.798;2022-11-20T02:56:58;97835.45;;;5.58;100.00
14966;BME280;7577;45.226;5.798;2022-11-20T03:02:08;97841.63;;;5.48;100.00
14966;BME280;7577;45.226;5.798;2022-11-20T03:07:19;97840.86;;;5.58;100.00
14966;BME280;7577;45.226;5.798;2022-11-20T03:09:49;97843.26;;;5.52;100.00
14966;BME280;7577;45.226;5.798;2022-11-20T03:12:20;97838.03;;;5.38;100.00
14966;BME280;7577;45.226;5.798;2022-11-20T03:14:50;97840.57;;;5.20;100.00
14966;BME280;7577;45.226;5.798;2022-11-20T03:17:20;97836.27;;;5.22;100.00
14966;BME280;7577;45.226;5.798;2022-11-20T03:19:50;97842.17;;;5.19;100.00
14966;BME280;7577;45.226;5.798;2022-11-20T03:22:21;97838.73;;;5.26;100.00
14966;BME280;7577;45.226;5.798;2022-11-20T03:24:51;97842.01;;;5.28;100.00
14966;BME280;7577;45.226;5.798;2022-11-20T03:27:22;97838.68;;;5.18;100.00
14966;BME280;7577;45.226;5.798;2022-11-20T03:29:53;97839.34;;;5.33;100.00
14966;BME280;7577;45.226;5.798;2022-11-20T03:32:24;97839.92;;;5.40;100.00
14966;BME280;7577;45.226;5.798;2022-11-20T03:34:54;97848.98;;;5.24;100.00
14966;BME280;7577;45.226;5.798;2022-11-20T03:37:25;97854.66;;;5.25;100.00
14966;BME280;7577;45.226;5.798;2022-11-20T03:42:38;97852.72;;;5.20;100.00
14966;BME280;7577;45.226;5.798;2022-11-20T03:45:16;97857.80;;;5.14;100.00
14966;BME280;7577;45.226;5.798;2022-11-20T03:47:47;97866.70;;;5.12;100.00
14966;BME280;7577;45.226;5.798;2022-11-20T03:53:02;97866.13;;;5.10;100.00
14966;BME280;7577;45.226;5.798;2022-11-20T03:55:32;97865.16;;;5.21;100.00
14966;BME280;7577;45.226;5.798;2022-11-20T03:58:02;97871.35;;;5.22;100.00
14966;BME280;7577;45.226;5.798;2022-11-20T04:00:32;97876.92;;;5.10;100.00
14966;BME280;7577;45.226;5.798;2022-11-20T04:03:03;97869.66;;;5.11;100.00
14966;BME280;7577;45.226;5.798;2022-11-20T04:05:35;97870.80;;;5.17;100.00
14966;BME280;7577;45.226;5.798;2022-11-20T04:08:06;97873.52;;;4.93;100.00
14966;BME280;7577;45.226;5.798;2022-11-20T04:10:36;97883.35;;;5.04;100.00
14966;BME280;7577;45.226;5.798;2022-11-20T04:13:06;97881.17;;;5.04;100.00
14966;BME280;7577;45.226;5.798;2022-11-20T04:15:36;97884.45;;;5.06;100.00
14966;BME280;7577;45.226;5.798;2022-11-20T04:18:06;97879.87;;;5.09;100.00
14966;BME280;7577;45.226;5.798;2022-11-20T04:20:36;97888.42;;;5.01;100.00
14966;BME280;7577;45.226;5.798;2022-11-20T04:23:07;97882.36;;;5.15;100.00
14966;BME280;7577;45.226;5.798;2022-11-20T04:25:37;97895.56;;;5.12;100.00
14966;BME280;7577;45.226;5.798;2022-11-20T04:28:07;97892.86;;;5.12;100.00
14966;BME280;7577;45.226;5.798;2022-11-20T04:30:37;97890.70;;;5.14;100.00
14966;BME280;7577;45.226;5.798;2022-11-20T04:33:07;97899.38;;;5.16;100.00
14966;BME280;7577;45.226;5.798;2022-11-20T04:35:38;97902.45;;;5.29;100.00
14966;BME280;7577;45.226;5.798;2022-11-20T04:38:08;97900.80;;;5.23;100.00
14966;BME280;7577;45.226;5.798;2022-11-20T04:40:38;97894.25;;;5.17;100.00
14966;BME280;7577;45.226;5.798;2022-11-20T04:45:52;97894.98;;;5.10;100.00
14966;BME280;7577;45.226;5.798;2022-11-20T04:51:04;97903.01;;;5.29;100.00
14966;BME280;7577;45.226;5.798;2022-11-20T04:53:34;97895.69;;;5.27;100.00
14966;BME280;7577;45.226;5.798;2022-11-20T04:56:07;97908.72;;;5.35;100.00
14966;BME280;7577;45.226;5.798;2022-11-20T04:58:39;97903.07;;;5.36;100.00
14966;BME280;7577;45.226;5.798;2022-11-20T05:01:12;97897.67;;;5.36;100.00
14966;BME280;7577;45.226;5.798;2022-11-20T05:03:44;97905.79;;;5.39;100.00
14966;BME280;7577;45.226;5.798;2022-11-20T05:06:16;97904.69;;;5.37;100.00
14966;BME280;7577;45.226;5.798;2022-11-20T05:08:46;97906.41;;;5.46;100.00
14966;BME280;7577;45.226;5.798;2022-11-20T05:11:18;97908.88;;;5.50;100.00
14966;BME280;7577;45.226;5.798;2022-11-20T05:13:49;97902.94;;;5.53;100.00
14966;BME280;7577;45.226;5.798;2022-11-20T05:16:22;97904.48;;;5.44;100.00
14966;BME280;7577;45.226;5.798;2022-11-20T05:18:53;97911.19;;;5.39;100.00
14966;BME280;7577;45.226;5.798;2022-11-20T05:21:24;97911.19;;;5.39;100.00
14966;BME280;7577;45.226;5.798;2022-11-20T05:23:54;97915.59;;;5.18;100.00
14966;BME280;7577;45.226;5.798;2022-11-20T05:29:04;97908.03;;;4.91;100.00
14966;BME280;7577;45.226;5.798;2022-11-20T05:31:34;97911.91;;;5.00;100.00
14966;BME280;7577;45.226;5.798;2022-11-20T05:34:05;97914.41;;;5.07;100.00
14966;BME280;7577;45.226;5.798;2022-11-20T05:36:36;97912.83;;;5.11;100.00
14966;BME280;7577;45.226;5.798;2022-11-20T05:39:06;97901.28;;;5.47;100.00
14966;BME280;7577;45.226;5.798;2022-11-20T05:41:36;97901.28;;;5.47;100.00
14966;BME280;7577;45.226;5.798;2022-11-20T05:44:06;97895.06;;;5.49;100.00
14966;BME280;7577;45.226;5.798;2022-11-20T05:46:37;97901.58;;;5.53;100.00
14966;BME280;7577;45.226;5.798;2022-11-20T05:49:08;97910.31;;;5.62;100.00
14966;BME280;7577;45.226;5.798;2022-11-20T05:54:21;97907.70;;;5.75;100.00
14966;BME280;7577;45.226;5.798;2022-11-20T05:56:51;97903.86;;;5.68;100.00
14966;BME280;7577;45.226;5.798;2022-11-20T05:59:21;97902.95;;;5.55;100.00
14966;BME280;7577;45.226;5.798;2022-11-20T06:01:51;97904.87;;;5.57;100.00
14966;BME280;7577;45.226;5.798;2022-11-20T06:04:21;97915.14;;;5.60;100.00
14966;BME280;7577;45.226;5.798;2022-11-20T06:06:51;97904.55;;;5.54;100.00
14966;BME280;7577;45.226;5.798;2022-11-20T06:09:22;97913.48;;;5.54;100.00
14966;BME280;7577;45.226;5.798;2022-11-20T06:14:33;97900.84;;;5.60;100.00
14966;BME280;7577;45.226;5.798;2022-11-20T06:17:03;97901.14;;;5.66;100.00
14966;BME280;7577;45.226;5.798;2022-11-20T06:19:33;97901.14;;;5.66;100.00
14966;BME280;7577;45.226;5.798;2022-11-20T06:24:48;97912.92;;;5.50;100.00
14966;BME280;7577;45.226;5.798;2022-11-20T06:27:18;97912.92;;;5.50;100.00
14966;BME280;7577;45.226;5.798;2022-11-20T06:29:48;97914.80;;;5.49;100.00
14966;BME280;7577;45.226;5.798;2022-11-20T06:32:18;97913.70;;;5.48;100.00
14966;BME280;7577;45.226;5.798;2022-11-20T06:34:48;97914.16;;;5.40;100.00
14966;BME280;7577;45.226;5.798;2022-11-20T06:40:10;97909.73;;;5.26;100.00
14966;BME280;7577;45.226;5.798;2022-11-20T06:42:40;97920.61;;;5.10;100.00
14966;BME280;7577;45.226;5.798;2022-11-20T06:45:11;97918.72;;;5.08;100.00
14966;BME280;7577;45.226;5.798;2022-11-20T06:51:37;97905.52;;;5.11;100.00
14966;BME280;7577;45.226;5.798;2022-11-20T06:54:07;97907.59;;;4.99;100.00
14966;BME280;7577;45.226;5.798;2022-11-20T06:56:40;97908.06;;;4.94;100.00
14966;BME280;7577;45.226;5.798;2022-11-20T06:59:12;97909.51;;;4.77;100.00
14966;BME280;7577;45.226;5.798;2022-11-20T07:04:22;97916.02;;;4.84;100.00
14966;BME280;7577;45.226;5.798;2022-11-20T07:06:52;97918.38;;;4.99;100.00
14966;BME280;7577;45.226;5.798;2022-11-20T07:09:25;97916.56;;;5.10;100.00
14966;BME280;7577;45.226;5.798;2022-11-20T07:11:57;97919.64;;;5.18;100.00
14966;BME280;7577;45.226;5.798;2022-11-20T07:14:27;97911.91;;;5.29;100.00
14966;BME280;7577;45.226;5.798;2022-11-20T07:17:06;97922.51;;;5.38;100.00
14966;BME280;7577;45.226;5.798;2022-11-20T07:19:38;97924.20;;;5.44;100.00
14966;BME280;7577;45.226;5.798;2022-11-20T07:22:08;97928.52;;;5.45;100.00
14966;BME280;7577;45.226;5.798;2022-11-20T07:24:43;97940.23;;;5.56;100.00
14966;BME280;7577;45.226;5.798;2022-11-20T07:27:23;97935.17;;;5.67;100.00
14966;BME280;7577;45.226;5.798;2022-11-20T07:30:02;97947.09;;;5.37;100.00
14966;BME280;7577;45.226;5.798;2022-11-20T07:32:35;97947.09;;;5.37;100.00
14966;BME280;7577;45.226;5.798;2022-11-20T07:35:06;97949.58;;;5.43;100.00
14966;BME280;7577;45.226;5.798;2022-11-20T07:37:38;97948.63;;;5.59;100.00
14966;BME280;7577;45.226;5.798;2022-11-20T07:42:57;97954.62;;;5.64;100.00
14966;BME280;7577;45.226;5.798;2022-11-20T07:45:31;97968.42;;;5.67;100.00
14966;BME280;7577;45.226;5.798;2022-11-20T07:50:49;97953.11;;;6.53;100.00
14966;BME280;7577;45.226;5.798;2022-11-20T07:53:19;97953.11;;;6.53;100.00
14966;BME280;7577;45.226;5.798;2022-11-20T07:55:53;97957.23;;;6.71;100.00
14966;BME280;7577;45.226;5.798;2022-11-20T07:58:29;97960.30;;;6.92;100.00
14966;BME280;7577;45.226;5.798;2022-11-20T08:03:51;97950.36;;;7.17;100.00
14966;BME280;7577;45.226;5.798;2022-11-20T08:06:21;97953.07;;;7.22;100.00
14966;BME280;7577;45.226;5.798;2022-11-20T08:08:53;97953.11;;;7.30;100.00
14966;BME280;7577;45.226;5.798;2022-11-20T08:11:25;97954.73;;;7.38;100.00
14966;BME280;7577;45.226;5.798;2022-11-20T08:14:26;97952.03;;;7.41;100.00
14966;BME280;7577;45.226;5.798;2022-11-20T08:16:56;97952.28;;;7.24;100.00
14966;BME280;7577;45.226;5.798;2022-11-20T08:19:28;97956.34;;;7.24;100.00
14966;BME280;7577;45.226;5.798;2022-11-20T08:21:58;97953.13;;;7.40;100.00
14966;BME280;7577;45.226;5.798;2022-11-20T08:24:28;97961.81;;;7.57;100.00
14966;BME280;7577;45.226;5.798;2022-11-20T08:26:59;97964.80;;;7.68;100.00
14966;BME280;7577;45.226;5.798;2022-11-20T08:29:29;97958.57;;;7.82;100.00
14966;BME280;7577;45.226;5.798;2022-11-20T08:31:59;97963.72;;;7.94;100.00
14966;BME280;7577;45.226;5.798;2022-11-20T08:34:29;97958.59;;;7.97;100.00
14966;BME280;7577;45.226;5.798;2022-11-20T08:36:59;97962.91;;;8.08;100.00
14966;BME280;7577;45.226;5.798;2022-11-20T08:39:32;97958.30;;;8.14;100.00
14966;BME280;7577;45.226;5.798;2022-11-20T08:44:47;97958.86;;;8.26;99.48
14966;BME280;7577;45.226;5.798;2022-11-20T08:50:03;97952.59;;;7.68;98.59
14966;BME280;7577;45.226;5.798;2022-11-20T08:52:35;97958.27;;;7.39;99.99
14966;BME280;7577;45.226;5.798;2022-11-20T08:55:09;97961.23;;;7.32;100.00
14966;BME280;7577;45.226;5.798;2022-11-20T08:57:39;97957.19;;;7.45;100.00
14966;BME280;7577;45.226;5.798;2022-11-20T09:00:12;97954.75;;;7.48;100.00
14966;BME280;7577;45.226;5.798;2022-11-20T09:02:42;97960.20;;;7.56;100.00
14966;BME280;7577;45.226;5.798;2022-11-20T09:05:12;97961.29;;;7.62;100.00
14966;BME280;7577;45.226;5.798;2022-11-20T09:07:42;97954.78;;;7.66;100.00
14966;BME280;7577;45.226;5.798;2022-11-20T09:10:13;97953.97;;;7.88;100.00
14966;BME280;7577;45.226;5.798;2022-11-20T09:12:43;97959.94;;;8.00;99.75
14966;BME280;7577;45.226;5.798;2022-11-20T09:15:13;97958.59;;;7.95;98.47
14966;BME280;7577;45.226;5.798;2022-11-20T09:17:43;97961.02;;;7.89;97.71
14966;BME280;7577;45.226;5.798;2022-11-20T09:20:20;97961.00;;;7.99;99.56
14966;BME280;7577;45.226;5.798;2022-11-20T09:22:51;97956.97;;;8.01;97.88
14966;BME280;7577;45.226;5.798;2022-11-20T09:25:22;97967.23;;;8.07;98.81
14966;BME280;7577;45.226;5.798;2022-11-20T09:27:57;97964.82;;;8.23;97.50
14966;BME280;7577;45.226;5.798;2022-11-20T09:30:27;97975.38;;;8.37;99.17
14966;BME280;7577;45.226;5.798;2022-11-20T09:32:58;97969.13;;;8.31;100.00
14966;BME280;7577;45.226;5.798;2022-11-20T09:38:17;97975.92;;;8.11;96.96
14966;BME280;7577;45.226;5.798;2022-11-20T09:40:57;97981.87;;;8.11;98.76
14966;BME280;7577;45.226;5.798;2022-11-20T09:43:45;97987.33;;;8.31;97.42
14966;BME280;7577;45.226;5.798;2022-11-20T09:46:14;97988.37;;;8.48;96.70
14966;BME280;7577;45.226;5.798;2022-11-20T09:48:54;97996.48;;;8.68;97.41
14966;BME280;7577;45.226;5.798;2022-11-20T09:51:34;98003.23;;;8.80;96.03
14966;BME280;7577;45.226;5.798;2022-11-20T09:54:16;97997.76;;;8.90;95.34
14966;BME280;7577;45.226;5.798;2022-11-20T09:56:50;97996.72;;;8.76;95.52
14966;BME280;7577;45.226;5.798;2022-11-20T09:59:36;98004.80;;;8.91;95.40
14966;BME280;7577;45.226;5.798;2022-11-20T10:02:16;98006.69;;;9.01;92.37
14966;BME280;7577;45.226;5.798;2022-11-20T10:04:50;98008.29;;;9.04;90.63
14966;BME280;7577;45.226;5.798;2022-11-20T10:10:03;98010.55;;;9.51;90.99
14966;BME280;7577;45.226;5.798;2022-11-20T10:15:27;98009.09;;;9.63;86.69
14966;BME280;7577;45.226;5.798;2022-11-20T10:18:11;98011.59;;;9.96;88.97
14966;BME280;7577;45.226;5.798;2022-11-20T10:23:41;98018.84;;;10.44;87.47
14966;BME280;7577;45.226;5.798;2022-11-20T10:26:18;98031.76;;;10.31;86.53
14966;BME280;7577;45.226;5.798;2022-11-20T10:28:58;98031.98;;;10.34;81.88
14966;BME280;7577;45.226;5.798;2022-11-20T10:31:34;98025.73;;;10.36;82.67
14966;BME280;7577;45.226;5.798;2022-11-20T10:36:54;98014.81;;;10.39;79.98
14966;BME280;7577;45.226;5.798;2022-11-20T10:39:32;98018.94;;;10.31;80.36
14966;BME280;7577;45.226;5.798;2022-11-20T10:42:03;98029.13;;;10.21;79.95
14966;BME280;7577;45.226;5.798;2022-11-20T10:44:52;98029.47;;;10.04;84.77
14966;BME280;7577;45.226;5.798;2022-11-20T10:47:31;98028.16;;;10.35;85.10
14966;BME280;7577;45.226;5.798;2022-11-20T10:53:00;98019.52;;;10.85;81.64
14966;BME280;7577;45.226;5.798;2022-11-20T10:55:38;98019.84;;;10.81;82.63
14966;BME280;7577;45.226;5.798;2022-11-20T10:58:13;98022.02;;;10.82;83.92
14966;BME280;7577;45.226;5.798;2022-11-20T11:00:42;98020.88;;;10.59;84.38
14966;BME280;7577;45.226;5.798;2022-11-20T11:03:22;98024.52;;;10.47;84.65
14966;BME280;7577;45.226;5.798;2022-11-20T11:05:54;98010.53;;;10.59;85.80
14966;BME280;7577;45.226;5.798;2022-11-20T11:08:28;98001.02;;;10.82;82.50
14966;BME280;7577;45.226;5.798;2022-11-20T11:11:00;98002.27;;;10.92;81.11
14966;BME280;7577;45.226;5.798;2022-11-20T11:13:32;98015.88;;;10.92;79.58
14966;BME280;7577;45.226;5.798;2022-11-20T11:16:04;98018.30;;;11.20;79.66
14966;BME280;7577;45.226;5.798;2022-11-20T11:21:24;98003.42;;;11.33;77.45
14966;BME280;7577;45.226;5.798;2022-11-20T11:24:02;98013.23;;;11.11;78.01
14966;BME280;7577;45.226;5.798;2022-11-20T11:26:35;98010.02;;;10.83;81.34
14966;BME280;7577;45.226;5.798;2022-11-20T11:29:15;98003.41;;;11.12;78.98
14966;BME280;7577;45.226;5.798;2022-11-20T11:32:08;97998.58;;;11.28;76.80
14966;BME280;7577;45.226;5.798;2022-11-20T11:34:38;97997.22;;;11.28;77.66
14966;BME280;7577;45.226;5.798;2022-11-20T11:37:16;97986.98;;;11.59;75.12
14966;BME280;7577;45.226;5.798;2022-11-20T11:42:32;97963.38;;;11.89;73.08
14966;BME280;7577;45.226;5.798;2022-11-20T11:50:49;97945.64;;;11.13;71.48
14966;BME280;7577;45.226;5.798;2022-11-20T11:53:31;97943.34;;;10.99;72.53
14966;BME280;7577;45.226;5.798;2022-11-20T11:58:51;97925.02;;;10.62;73.72
14966;BME280;7577;45.226;5.798;2022-11-20T12:01:32;97917.77;;;10.76;74.35
14966;BME280;7577;45.226;5.798;2022-11-20T12:04:13;97911.25;;;10.51;75.54
14966;BME280;7577;45.226;5.798;2022-11-20T12:06:46;97906.37;;;10.48;78.89
14966;BME280;7577;45.226;5.798;2022-11-20T12:09:21;97902.57;;;10.49;78.90
14966;BME280;7577;45.226;5.798;2022-11-20T12:11:58;97900.25;;;10.35;75.01
14966;BME280;7577;45.226;5.798;2022-11-20T12:14:32;97902.01;;;9.93;74.02
14966;BME280;7577;45.226;5.798;2022-11-20T12:17:02;97902.24;;;9.99;75.97
14966;BME280;7577;45.226;5.798;2022-11-20T12:19:35;97905.75;;;9.99;75.04
14966;BME280;7577;45.226;5.798;2022-11-20T12:22:10;97896.19;;;10.04;76.16
14966;BME280;7577;45.226;5.798;2022-11-20T12:24:44;97888.17;;;10.20;76.73
14966;BME280;7577;45.226;5.798;2022-11-20T12:33:40;97872.56;;;10.31;82.09
14966;BME280;7577;45.226;5.798;2022-11-20T12:36:17;97866.92;;;10.25;81.02
14966;BME280;7577;45.226;5.798;2022-11-20T12:39:12;97867.37;;;10.32;80.08
14966;BME280;7577;45.226;5.798;2022-11-20T12:41:53;97864.48;;;10.23;81.88
14966;BME280;7577;45.226;5.798;2022-11-20T12:44:51;97863.32;;;10.29;80.25
14966;BME280;7577;45.226;5.798;2022-11-20T12:53:27;97826.80;;;10.09;75.87
14966;BME280;7577;45.226;5.798;2022-11-20T12:56:06;97832.97;;;10.17;77.31
14966;BME280;7577;45.226;5.798;2022-11-20T12:58:41;97830.88;;;10.09;76.26
14966;BME280;7577;45.226;5.798;2022-11-20T13:01:20;97824.58;;;10.14;75.40
14966;BME280;7577;45.226;5.798;2022-11-20T13:03:53;97818.24;;;9.95;74.33
14966;BME280;7577;45.226;5.798;2022-11-20T13:06:28;97811.89;;;10.02;75.14
14966;BME280;7577;45.226;5.798;2022-11-20T13:08:58;97803.98;;;10.08;74.32
14966;BME280;7577;45.226;5.798;2022-11-20T13:14:23;97798.58;;;10.26;77.76
14966;BME280;7577;45.226;5.798;2022-11-20T13:16:58;97812.34;;;10.14;77.70
14966;BME280;7577;45.226;5.798;2022-11-20T13:19:29;97812.66;;;10.10;77.17
14966;BME280;7577;45.226;5.798;2022-11-20T13:22:01;97807.72;;;10.14;74.96
14966;BME280;7577;45.226;5.798;2022-11-20T13:24:32;97810.09;;;10.21;73.89
14966;BME280;7577;45.226;5.798;2022-11-20T13:27:18;97813.33;;;10.23;76.96
14966;BME280;7577;45.226;5.798;2022-11-20T13:30:00;97822.31;;;10.23;78.27
14966;BME280;7577;45.226;5.798;2022-11-20T13:35:11;97807.53;;;10.29;80.61
14966;BME280;7577;45.226;5.798;2022-11-20T13:37:47;97818.13;;;10.31;80.12
14966;BME280;7577;45.226;5.798;2022-11-20T13:40:24;97817.78;;;10.37;78.45
14966;BME280;7577;45.226;5.798;2022-11-20T13:43:18;97817.22;;;10.38;79.30
14966;BME280;7577;45.226;5.798;2022-11-20T13:46:00;97822.47;;;10.32;80.43
14966;BME280;7577;45.226;5.798;2022-11-20T13:51:31;97826.52;;;10.34;80.88
14966;BME280;7577;45.226;5.798;2022-11-20T13:57:08;97828.89;;;10.41;76.06
14966;BME280;7577;45.226;5.798;2022-11-20T13:59:46;97820.66;;;10.46;74.96
14966;BME280;7577;45.226;5.798;2022-11-20T14:02:20;97827.71;;;10.49;75.65
14966;BME280;7577;45.226;5.798;2022-11-20T14:07:36;97821.98;;;10.48;74.87
14966;BME280;7577;45.226;5.798;2022-11-20T14:13:12;97824.95;;;10.52;72.73
14966;BME280;7577;45.226;5.798;2022-11-20T14:15:46;97830.88;;;10.56;71.86
14966;BME280;7577;45.226;5.798;2022-11-20T14:18:21;97834.13;;;10.58;71.39
14966;BME280;7577;45.226;5.798;2022-11-20T14:21:01;97833.56;;;10.59;70.90
14966;BME280;7577;45.226;5.798;2022-11-20T14:23:32;97827.64;;;10.54;70.84
14966;BME280;7577;45.226;5.798;2022-11-20T14:26:12;97812.45;;;10.48;72.98
14966;BME280;7577;45.226;5.798;2022-11-20T14:28:48;97813.03;;;10.48;74.46
14966;BME280;7577;45.226;5.798;2022-11-20T14:31:24;97816.54;;;10.48;73.41
14966;BME280;7577;45.226;5.798;2022-11-20T14:34:11;97821.23;;;10.45;72.45
14966;BME280;7577;45.226;5.798;2022-11-20T14:36:52;97810.12;;;10.39;73.73
14966;BME280;7577;45.226;5.798;2022-11-20T14:39:31;97813.31;;;10.46;70.83
14966;BME280;7577;45.226;5.798;2022-11-20T14:42:15;97814.81;;;10.36;69.25
14966;BME280;7577;45.226;5.798;2022-11-20T14:44:49;97813.77;;;10.32;67.90
14966;BME280;7577;45.226;5.798;2022-11-20T14:47:24;97817.87;;;10.51;67.31
14966;BME280;7577;45.226;5.798;2022-11-20T14:49:59;97813.50;;;10.73;69.12
14966;BME280;7577;45.226;5.798;2022-11-20T14:55:33;97801.18;;;10.97;68.00
14966;BME280;7577;45.226;5.798;2022-11-20T14:58:19;97793.83;;;10.97;69.56
14966;BME280;7577;45.226;5.798;2022-11-20T15:00:41;97794.73;;;10.90;67.94
14966;BME280;7577;45.226;5.798;2022-11-20T15:03:21;97793.75;;;11.02;68.14
14966;BME280;7577;45.226;5.798;2022-11-20T15:08:51;97781.63;;;11.11;68.41
14966;BME280;7577;45.226;5.798;2022-11-20T15:14:10;97796.35;;;10.91;72.75
14966;BME280;7577;45.226;5.798;2022-11-20T15:16:40;97791.06;;;10.81;72.61
14966;BME280;7577;45.226;5.798;2022-11-20T15:19:16;97787.41;;;10.70;71.35
14966;BME280;7577;45.226;5.798;2022-11-20T15:21:47;97794.95;;;10.57;71.29
14966;BME280;7577;45.226;5.798;2022-11-20T15:27:09;97796.62;;;10.32;72.87
14966;BME280;7577;45.226;5.798;2022-11-20T15:29:45;97813.10;;;10.19;74.45
14966;BME280;7577;45.226;5.798;2022-11-20T15:32:18;97812.43;;;10.04;75.52
14966;BME280;7577;45.226;5.798;2022-11-20T15:34:55;97813.09;;;9.93;76.23
14966;BME280;7577;45.226;5.798;2022-11-20T15:37:33;97808.83;;;9.82;76.27
14966;BME280;7577;45.226;5.798;2022-11-20T15:42:52;97812.53;;;9.65;76.82
14966;BME280;7577;45.226;5.798;2022-11-20T15:45:44;97817.25;;;9.57;77.27
14966;BME280;7577;45.226;5.798;2022-11-20T15:48:27;97818.91;;;9.53;77.64
14966;BME280;7577;45.226;5.798;2022-11-20T15:51:03;97819.48;;;9.50;77.49
14966;BME280;7577;45.226;5.798;2022-11-20T15:56:30;97818.67;;;9.47;80.60
14966;BME280;7577;45.226;5.798;2022-11-20T15:59:16;97828.48;;;9.43;82.43
14966;BME280;7577;45.226;5.798;2022-11-20T16:01:49;97823.92;;;9.39;83.45
14966;BME280;7577;45.226;5.798;2022-11-20T16:04:22;97828.33;;;9.32;84.24
14966;BME280;7577;45.226;5.798;2022-11-20T16:09:34;97829.98;;;9.28;84.24
14966;BME280;7577;45.226;5.798;2022-11-20T16:12:05;97822.45;;;9.18;83.43
14966;BME280;7577;45.226;5.798;2022-11-20T16:14:35;97825.45;;;9.16;82.41
14966;BME280;7577;45.226;5.798;2022-11-20T16:20:15;97834.12;;;9.21;85.62